createdAt,value
2023-03-17T00:03:41.091Z,4.37
2023-03-17T00:13:45.007Z,3.65
2023-03-17T00:18:47.217Z,4.50
2023-03-17T00:23:50.911Z,4.93
2023-03-17T00:28:52.908Z,5.82
2023-03-17T00:33:54.818Z,4.17
2023-03-17T00:38:56.796Z,12.07
2023-03-17T00:43:58.738Z,9.73
2023-03-17T00:49:00.599Z,8.47
2023-03-17T00:54:02.446Z,9.00
2023-03-17T00:59:04.433Z,8.63
2023-03-17T01:04:06.388Z,7.80
2023-03-17T01:09:08.257Z,5.93
2023-03-17T01:14:11.570Z,8.17
2023-03-17T01:19:13.593Z,8.35
2023-03-17T01:24:15.589Z,7.23
2023-03-17T01:29:17.518Z,7.47
2023-03-17T01:34:19.365Z,5.17
2023-03-17T01:39:21.229Z,7.90
2023-03-17T01:44:23.354Z,6.13
2023-03-17T01:49:37.648Z,6.07
2023-03-17T01:54:45.623Z,7.18
2023-03-17T01:59:50.485Z,5.60
2023-03-17T02:04:52.501Z,6.35
2023-03-17T02:09:55.091Z,7.00
2023-03-17T02:20:18.614Z,4.57
2023-03-17T02:25:21.281Z,4.10
2023-03-17T02:35:25.250Z,6.35
2023-03-17T02:40:27.279Z,3.43
2023-03-17T02:45:29.305Z,4.55
2023-03-17T02:50:31.600Z,3.93
2023-03-17T02:55:33.786Z,4.75
2023-03-17T03:00:35.614Z,3.42
2023-03-17T03:05:37.487Z,3.03
2023-03-17T03:10:39.374Z,3.00
2023-03-17T03:15:42.548Z,3.90
2023-03-17T03:20:44.631Z,3.25
2023-03-17T03:25:46.487Z,2.87
2023-03-17T03:30:48.447Z,3.57
2023-03-17T03:35:50.457Z,5.75
2023-03-17T03:40:52.317Z,1.83
2023-03-17T03:45:54.214Z,3.17
2023-03-17T03:50:57.516Z,2.73
2023-03-17T03:55:59.391Z,3.50
2023-03-17T04:01:04.905Z,1.97
2023-03-17T04:06:06.990Z,2.40
2023-03-17T04:11:08.926Z,3.23
2023-03-17T04:16:11.068Z,3.42
2023-03-17T04:21:13.178Z,3.78
2023-03-17T04:26:15.133Z,5.50
2023-03-17T04:31:17.059Z,2.37
2023-03-17T04:36:20.300Z,4.82
2023-03-17T04:41:22.190Z,2.70
2023-03-17T04:46:23.989Z,4.70
2023-03-17T04:51:25.759Z,3.97
2023-03-17T04:56:27.842Z,1.93
2023-03-17T05:01:29.797Z,2.25
2023-03-17T05:06:31.599Z,3.57
2023-03-17T05:11:33.379Z,5.33
2023-03-17T05:16:35.415Z,2.42
2023-03-17T05:21:37.292Z,4.07
2023-03-17T05:26:39.559Z,2.63
2023-03-17T05:31:41.581Z,5.22
2023-03-17T05:36:44.677Z,3.72
2023-03-17T05:41:46.455Z,4.85
2023-03-17T05:46:48.190Z,2.70
2023-03-17T05:51:49.937Z,2.80
2023-03-17T05:56:51.682Z,3.77
2023-03-17T06:01:53.457Z,2.50
2023-03-17T06:06:55.212Z,5.82
2023-03-17T06:11:57.021Z,3.10
2023-03-17T06:16:58.864Z,4.43
2023-03-17T06:22:00.601Z,3.03
2023-03-17T06:27:02.366Z,3.87
2023-03-17T06:32:19.344Z,3.13
2023-03-17T06:37:22.458Z,2.55
2023-03-17T06:42:24.207Z,4.40
2023-03-17T06:47:26.191Z,4.77
2023-03-17T06:52:27.925Z,1.67
2023-03-17T06:57:29.758Z,4.40
2023-03-17T07:02:31.538Z,3.50
2023-03-17T07:07:33.288Z,3.37
2023-03-17T07:12:35.071Z,5.30
2023-03-17T07:17:36.846Z,1.53
2023-03-17T07:22:38.582Z,3.83
2023-03-17T07:27:40.340Z,2.35
2023-03-17T07:32:42.154Z,1.90
2023-03-17T07:37:43.941Z,2.07
2023-03-17T07:42:45.764Z,2.70
2023-03-17T07:47:47.539Z,1.98
2023-03-17T07:52:49.265Z,4.22
2023-03-17T07:57:51.198Z,2.30
2023-03-17T08:03:06.871Z,1.80
2023-03-17T08:08:11.136Z,3.10
2023-03-17T08:13:12.895Z,3.03
2023-03-17T08:18:14.664Z,3.33
2023-03-17T08:23:16.391Z,2.70
2023-03-17T08:28:18.154Z,2.25
2023-03-17T08:33:20.403Z,2.50
2023-03-17T08:38:22.312Z,1.88
2023-03-17T08:43:24.596Z,4.10
2023-03-17T08:48:26.462Z,2.22
2023-03-17T08:53:28.418Z,7.73
2023-03-17T08:58:30.455Z,3.63
2023-03-17T09:03:32.966Z,1.17
2023-03-17T09:08:35.378Z,2.40
2023-03-17T09:13:37.222Z,2.83
2023-03-17T09:18:39.323Z,3.47
2023-03-17T09:23:41.229Z,2.45
2023-03-17T09:28:43.152Z,1.80
2023-03-17T09:33:44.982Z,4.07
2023-03-17T09:38:47.025Z,4.37
2023-03-17T09:44:11.098Z,1.20
2023-03-17T09:49:18.634Z,2.03
2023-03-17T09:54:27.062Z,3.30
2023-03-17T09:59:33.975Z,2.10
2023-03-17T10:04:35.748Z,3.28
2023-03-17T10:09:39.071Z,7.68
2023-03-17T10:15:02.888Z,4.82
2023-03-17T10:20:18.649Z,2.65
2023-03-17T10:25:33.663Z,1.85
2023-03-17T10:30:35.735Z,2.35
2023-03-17T10:35:37.795Z,3.73
2023-03-17T10:40:39.678Z,1.70
2023-03-17T10:45:46.728Z,1.83
2023-03-17T10:50:49.571Z,2.85
2023-03-17T10:55:52.937Z,2.65
2023-03-17T11:00:54.633Z,1.50
2023-03-17T11:06:06.603Z,1.77
2023-03-17T11:11:32.332Z,2.65
2023-03-17T11:16:35.432Z,1.70
2023-03-17T11:21:47.039Z,2.00
2023-03-17T11:26:51.811Z,2.35
2023-03-17T11:32:06.518Z,3.33
2023-03-17T11:37:14.770Z,1.00
2023-03-17T11:42:23.638Z,3.55
2023-03-17T11:47:47.095Z,2.08
2023-03-17T11:53:16.729Z,2.35
2023-03-17T11:58:35.454Z,2.28
2023-03-17T12:03:41.513Z,3.03
2023-03-17T12:08:46.924Z,1.50
2023-03-17T12:13:51.824Z,1.95
2023-03-17T12:18:53.634Z,5.43
2023-03-17T12:24:11.326Z,1.83
2023-03-17T12:29:16.871Z,2.38
2023-03-17T12:34:25.893Z,2.10
2023-03-17T12:39:35.236Z,3.03
2023-03-17T12:45:09.352Z,2.20
2023-03-17T12:55:14.407Z,2.15
2023-03-17T13:00:30.209Z,2.40
2023-03-17T13:05:33.271Z,2.83
2023-03-17T13:10:41.825Z,2.85
2023-03-17T13:15:43.703Z,1.83
2023-03-17T13:21:08.385Z,3.70
2023-03-17T13:26:43.147Z,3.72
2023-03-17T13:31:45.112Z,5.15
2023-03-17T13:37:14.047Z,2.47
2023-03-17T13:42:46.724Z,3.25
2023-03-17T13:47:48.726Z,3.20
2023-03-17T13:53:03.665Z,6.80
2023-03-17T13:58:11.155Z,2.67
2023-03-17T14:03:18.444Z,3.97
2023-03-17T14:08:35.788Z,2.50
2023-03-17T14:14:31.637Z,3.53
2023-03-17T14:19:34.570Z,3.00
2023-03-17T14:24:36.447Z,2.57
2023-03-17T14:29:38.257Z,3.47
2023-03-17T14:35:04.708Z,2.42
2023-03-17T14:40:27.982Z,2.65
2023-03-17T14:45:45.031Z,3.90
2023-03-17T14:50:52.506Z,2.65
2023-03-17T14:55:54.268Z,2.47
2023-03-17T15:01:02.108Z,2.50
2023-03-17T15:06:24.535Z,4.43
2023-03-17T15:11:28.070Z,5.00
2023-03-17T15:16:30.693Z,4.18
2023-03-17T15:26:39.897Z,2.78
2023-03-17T15:31:41.878Z,5.33
2023-03-17T15:36:43.720Z,3.30
2023-03-17T15:41:45.673Z,2.47
2023-03-17T15:46:47.553Z,4.27
2023-03-17T15:51:49.383Z,3.97
2023-03-17T15:56:51.214Z,3.43
2023-03-17T16:01:53.229Z,4.28
2023-03-17T16:06:55.151Z,5.10
2023-03-17T16:11:57.749Z,6.97
2023-03-17T16:16:59.576Z,4.47
2023-03-17T16:22:01.347Z,7.10
2023-03-17T16:27:03.213Z,7.43
2023-03-17T16:32:05.365Z,7.63
2023-03-17T16:37:15.340Z,5.85
2023-03-17T16:42:23.585Z,5.22
2023-03-17T16:47:25.397Z,6.47
2023-03-17T16:52:27.624Z,3.60
2023-03-17T16:57:29.425Z,3.50
2023-03-17T17:02:31.389Z,3.53
2023-03-17T17:07:33.214Z,5.50
2023-03-17T17:12:35.120Z,4.23
2023-03-17T17:17:37.809Z,5.87
2023-03-17T17:22:39.624Z,4.30
2023-03-17T17:27:42.370Z,4.60
2023-03-17T17:37:46.214Z,4.30
2023-03-17T17:42:48.035Z,6.37
2023-03-17T17:47:51.110Z,9.40
2023-03-17T17:52:53.070Z,8.10
2023-03-17T17:57:54.960Z,4.83
2023-03-17T18:02:56.846Z,5.50
2023-03-17T18:08:00.191Z,5.27
2023-03-17T18:13:02.194Z,8.27
2023-03-17T18:18:08.037Z,3.67
2023-03-17T18:23:10.851Z,9.43
2023-03-17T18:28:12.950Z,6.00
2023-03-17T18:33:16.669Z,6.18
2023-03-17T18:38:18.476Z,5.32
2023-03-17T18:43:21.078Z,4.87
2023-03-17T18:48:22.985Z,5.03
2023-03-17T18:53:26.613Z,5.67
2023-03-17T18:58:28.632Z,3.28
2023-03-17T19:03:30.532Z,3.97
2023-03-17T19:08:32.423Z,2.87
2023-03-17T19:13:34.528Z,4.55
2023-03-17T19:18:37.263Z,6.20
2023-03-17T19:28:41.048Z,5.20
2023-03-17T19:33:42.915Z,2.77
2023-03-17T19:38:44.738Z,4.27
2023-03-17T19:43:46.634Z,7.13
2023-03-17T19:48:48.539Z,3.57
2023-03-17T19:53:50.415Z,3.53
2023-03-17T19:58:52.392Z,11.57
2023-03-17T20:03:54.183Z,8.63
2023-03-17T20:08:56.169Z,6.03
2023-03-17T20:13:58.096Z,7.13
2023-03-17T20:19:00.882Z,11.43
2023-03-17T20:24:02.767Z,7.22
2023-03-17T20:29:04.659Z,6.90
2023-03-17T20:34:06.626Z,10.13
2023-03-17T20:39:08.713Z,12.57
2023-03-17T20:44:10.620Z,8.10
2023-03-17T20:49:12.681Z,11.20
2023-03-17T20:54:14.615Z,12.50
2023-03-17T20:59:16.668Z,10.47
2023-03-17T21:04:18.500Z,18.00
2023-03-17T21:09:20.281Z,12.47
2023-03-17T21:14:22.119Z,12.13
2023-03-17T21:19:23.939Z,11.33
2023-03-17T21:24:29.458Z,7.37
2023-03-17T21:29:33.009Z,12.75
2023-03-17T21:34:34.969Z,5.20
2023-03-17T21:39:36.875Z,5.97
2023-03-17T21:44:39.138Z,6.97
2023-03-17T21:49:41.027Z,4.25
2023-03-17T21:54:42.856Z,4.70
2023-03-17T21:59:44.733Z,4.47
2023-03-17T22:04:46.755Z,7.27
2023-03-17T22:09:48.587Z,4.00
2023-03-17T22:14:51.143Z,2.10
2023-03-17T22:19:53.096Z,3.40
2023-03-17T22:24:54.926Z,6.30
2023-03-17T22:29:56.759Z,5.17
2023-03-17T22:34:58.586Z,4.83
2023-03-17T22:40:00.449Z,5.60
2023-03-17T22:45:02.365Z,3.90
2023-03-17T22:50:05.641Z,5.05
2023-03-17T22:55:07.993Z,6.38
2023-03-17T23:00:12.601Z,5.00
2023-03-17T23:05:14.630Z,7.70
2023-03-17T23:10:17.049Z,8.13
2023-03-17T23:15:19.490Z,5.00
2023-03-17T23:20:23.415Z,6.90
2023-03-17T23:25:25.293Z,6.63
2023-03-17T23:30:27.235Z,7.20
2023-03-17T23:35:29.200Z,7.07
2023-03-17T23:40:31.510Z,5.53
2023-03-17T23:45:33.616Z,5.47
2023-03-17T23:50:35.715Z,6.50
2023-03-17T23:55:38.013Z,3.90
